San Antonio, Texas
Traffic Map
Current Weather Conditions
San Antonio, Texas
Overcast Light Rain
Overcast
21°
Feels Like: 21°
Wind Chill: 21° Ceiling: 700
Heat Index: 21° Visibility: 4mi
Dew Point: 19° Wind: 5mph
Humidity: 90% Direction: 150° (SSE)
Pressure: 29.92in Gusts: 0mph
Raw Report DataKSAT 280951Z 15004KT 4SM -RA BR BKN007 OVC020 21/19 A2992 RMK AO2 RAB21 SLP115 P0000 T02110194
Traffic Incident Summary
Active as of:
Severity:
Category:
InformationThere was an issue retrieving the traffic information for this location. Please try a different location or try again shortly.
Advertisements
Track Severe Weather on mobile